Time;durP1;ratioP1;P1;durP2;ratioP2;P2;SDS_P1;SDS_P2;PMS_P1;PMS_P2;Temp;Humidity;BMP_temperature;BMP_pressure;BME280_temperature;BME280_humidity;BME280_pressure;Samples;Min_cycle;Max_cycle;Signal;HPM_P1;HPM_P2
2021/07/02 00:00:51;;;;;;;;;13.75;12.50;;;;;25.31;45.55;101607.59;5059360;28;45348;-70
2021/07/02 00:03:16;;;;;;;;;15.50;15.50;;;;;25.68;45.53;101658.31;5059433;28;45372;-70
2021/07/02 00:05:41;;;;;;;;;13.50;13.00;;;;;25.42;45.63;101615.16;5058986;28;45430;-70
2021/07/02 00:08:07;;;;;;;;;14.25;13.50;;;;;25.68;45.82;101656.47;5058150;28;45324;-70
2021/07/02 00:10:32;;;;;;;;;14.00;14.00;;;;;25.36;45.24;101608.72;5060699;28;45401;-70
2021/07/02 00:12:58;;;;;;;;;13.00;13.00;;;;;25.57;45.67;101635.63;5079612;28;45377;-70
2021/07/02 00:15:23;;;;;;;;;11.25;11.25;;;;;25.49;45.63;101624.03;5078825;28;45394;-70
2021/07/02 00:17:48;;;;;;;;;12.50;10.25;;;;;25.60;45.39;101645.91;5079668;28;45416;-70
2021/07/02 00:20:14;;;;;;;;;15.00;14.00;;;;;25.64;45.28;101644.50;5079466;28;45227;-70
2021/07/02 00:22:40;;;;;;;;;15.00;14.75;;;;;25.68;45.49;101650.31;5079529;28;46705;-70
2021/07/02 00:25:07;;;;;;;;;13.25;12.25;;;;;25.60;45.40;101645.91;5079285;28;45207;-70
2021/07/02 00:27:32;;;;;;;;;14.25;14.25;;;;;25.56;45.57;101636.63;5095505;27;45473;-70
2021/07/02 00:29:58;;;;;;;;;17.50;16.50;;;;;25.37;45.36;101609.56;5078889;28;45420;-70
2021/07/02 00:32:23;;;;;;;;;13.25;12.50;;;;;25.66;45.40;101655.00;5077601;28;48298;-70
2021/07/02 00:34:49;;;;;;;;;13.50;12.75;;;;;25.67;45.43;101657.47;5078098;28;45326;-70
2021/07/02 00:37:14;;;;;;;;;12.75;12.25;;;;;25.37;45.37;101612.22;5071846;27;45470;-70
2021/07/02 00:39:40;;;;;;;;;15.00;14.00;;;;;25.63;45.25;101651.69;5062412;28;45413;-70
2021/07/02 00:42:05;;;;;;;;;14.00;14.00;;;;;25.69;45.00;101666.09;5061951;28;45378;-70
2021/07/02 00:44:48;;;;;;;;;10.75;10.75;;;;;25.72;45.35;101662.25;5061890;28;45444;-70
2021/07/02 00:47:16;;;;;;;;;13.00;13.00;;;;;25.67;45.21;101653.97;5061993;28;45362;-70
2021/07/02 00:49:42;;;;;;;;;14.00;14.00;;;;;25.53;45.11;101632.47;5062205;28;45446;-70
2021/07/02 00:52:12;;;;;;;;;14.00;14.00;;;;;25.66;45.52;101652.34;5062256;28;46111;-70
2021/07/02 00:54:38;;;;;;;;;11.75;11.75;;;;;25.65;45.28;101650.69;5060534;28;45259;-70
2021/07/02 00:57:05;;;;;;;;;14.50;12.25;;;;;25.57;45.10;101631.13;5067217;27;45486;-70
2021/07/02 00:59:31;;;;;;;;;15.00;13.25;;;;;25.42;45.38;101609.00;5063191;28;45561;-70
2021/07/02 01:01:58;;;;;;;;;14.00;14.00;;;;;25.36;45.49;101607.88;5061710;28;45406;-70
2021/07/02 01:04:24;;;;;;;;;13.00;12.25;;;;;25.63;44.84;101645.53;5061894;28;45225;-70
2021/07/02 01:06:51;;;;;;;;;12.00;12.00;;;;;25.43;44.96;101607.97;5061861;28;45264;-70
2021/07/02 01:09:17;;;;;;;;;14.00;13.00;;;;;25.60;45.12;101630.75;5071132;28;45608;-70
2021/07/02 01:11:43;;;;;;;;;12.25;12.00;;;;;25.56;45.02;101621.47;5082234;28;45370;-70
2021/07/02 01:14:09;;;;;;;;;12.25;11.25;;;;;25.72;45.14;101647.09;5081742;28;45393;-70
2021/07/02 01:16:37;;;;;;;;;14.75;13.25;;;;;25.60;45.15;101630.75;5082110;28;45342;-70
2021/07/02 01:19:03;;;;;;;;;13.00;13.00;;;;;25.53;44.99;101613.84;5080769;28;45455;-70
2021/07/02 01:21:28;;;;;;;;;12.75;12.75;;;;;25.60;44.99;101620.09;5081892;28;45895;-70
2021/07/02 01:23:54;;;;;;;;;11.75;11.50;;;;;25.50;44.94;101606.22;5081714;28;45272;-70
2021/07/02 01:26:20;;;;;;;;;13.50;12.00;;;;;25.54;44.71;101601.34;5080851;28;45499;-70
2021/07/02 01:28:46;;;;;;;;;11.25;11.25;;;;;25.75;44.90;101632.59;5081860;28;45270;-70
2021/07/02 01:31:11;;;;;;;;;12.00;11.25;;;;;25.49;45.23;101602.75;5081538;28;45380;-70
2021/07/02 01:33:37;;;;;;;;;15.00;14.00;;;;;25.40;44.60;101587.84;5081477;28;45308;-70
2021/07/02 01:36:07;;;;;;;;;12.00;12.00;;;;;25.67;44.54;101627.31;5081864;28;45304;-70
2021/07/02 01:38:33;;;;;;;;;13.25;13.25;;;;;25.52;44.97;101594.38;5063166;28;45328;-70
2021/07/02 01:40:59;;;;;;;;;12.50;11.75;;;;;25.55;45.19;101598.50;5061435;28;45573;-70
2021/07/02 01:43:26;;;;;;;;;11.75;11.75;;;;;25.60;44.98;101606.78;5059879;28;45193;-70
2021/07/02 01:45:51;;;;;;;;;11.00;11.00;;;;;25.73;45.20;101624.78;5059753;28;45358;-70
2021/07/02 01:48:17;;;;;;;;;12.25;12.25;;;;;25.70;44.85;101621.63;5060873;28;45255;-70
2021/07/02 01:50:43;;;;;;;;;12.25;11.00;;;;;25.65;44.97;101613.38;5061344;28;45413;-70
2021/07/02 01:53:08;;;;;;;;;13.25;13.25;;;;;25.74;44.97;101630.94;5061111;28;45385;-70
2021/07/02 01:55:33;;;;;;;;;13.75;12.25;;;;;25.72;44.81;101620.44;5061076;28;45433;-70
2021/07/02 01:57:59;;;;;;;;;13.25;12.75;;;;;25.58;44.96;101600.78;5065701;28;45362;-70
2021/07/02 02:00:25;;;;;;;;;13.25;12.00;;;;;25.66;45.28;101607.03;5059229;28;47235;-70
2021/07/02 02:02:50;;;;;;;;;13.00;13.00;;;;;25.56;44.53;101586.00;5059556;28;45351;-70
2021/07/02 02:05:16;;;;;;;;;14.50;14.50;;;;;25.70;44.63;101608.31;5061289;28;45306;-70
2021/07/02 02:07:41;;;;;;;;;12.75;12.75;;;;;25.39;45.13;101554.25;5060442;28;45178;-70
2021/07/02 02:10:07;;;;;;;;;13.25;13.25;;;;;25.61;44.99;101588.91;5060930;28;46218;-70
2021/07/02 02:12:33;;;;;;;;;12.75;12.75;;;;;25.52;45.21;101580.22;5078922;28;45509;-70
2021/07/02 02:14:58;;;;;;;;;14.25;11.75;;;;;25.62;44.84;101591.41;5080789;28;45274;-70
2021/07/02 02:17:24;;;;;;;;;12.50;12.50;;;;;25.73;44.91;101603.47;5079693;28;45197;-71
2021/07/02 02:19:49;;;;;;;;;14.00;13.00;;;;;25.62;45.14;101586.09;5079846;28;47164;-70
2021/07/02 02:22:15;;;;;;;;;12.50;12.50;;;;;25.58;44.87;101574.13;5079357;28;45634;-70
2021/07/02 02:24:40;;;;;;;;;13.00;10.25;;;;;25.61;45.00;101583.59;5079473;28;45456;-70
2021/07/02 02:27:06;;;;;;;;;10.50;9.75;;;;;25.63;44.94;101573.59;5079927;28;45890;-70
2021/07/02 02:29:31;;;;;;;;;14.25;13.50;;;;;25.57;45.07;101571.66;5079350;28;45820;-70
2021/07/02 02:31:57;;;;;;;;;14.00;13.00;;;;;25.66;45.24;101589.19;5080842;28;45243;-70
2021/07/02 02:34:22;;;;;;;;;13.50;11.75;;;;;25.38;44.86;101537.44;5096802;27;45273;-70
2021/07/02 02:36:48;;;;;;;;;11.25;11.25;;;;;25.63;44.84;101582.38;5077336;28;45389;-70
2021/07/02 02:39:14;;;;;;;;;12.25;10.75;;;;;25.50;44.94;101563.59;5059225;28;47380;-70
2021/07/02 02:41:39;;;;;;;;;14.75;13.50;;;;;25.71;45.00;101599.31;5060656;28;45295;-70
2021/07/02 02:44:06;;;;;;;;;13.75;12.50;;;;;25.60;45.29;101576.63;5060621;28;45347;-70
2021/07/02 02:46:32;;;;;;;;;10.25;10.25;;;;;25.61;44.54;101572.94;5060242;28;45405;-70
2021/07/02 02:48:57;;;;;;;;;12.00;10.50;;;;;25.74;44.79;101597.09;5058975;28;47402;-70
2021/07/02 02:51:23;;;;;;;;;11.50;11.50;;;;;25.60;44.47;101568.63;5060510;28;45315;-70
2021/07/02 02:53:48;;;;;;;;;14.25;13.00;;;;;25.76;44.91;101598.78;5060464;28;45447;-70
2021/07/02 02:56:14;;;;;;;;;11.25;11.25;;;;;25.46;44.94;101547.16;5060273;28;45217;-70
2021/07/02 02:58:39;;;;;;;;;11.25;10.50;;;;;25.76;44.62;101588.94;5065632;28;46375;-70
2021/07/02 03:01:04;;;;;;;;;11.50;11.00;;;;;25.78;44.77;101596.75;5058318;28;45302;-70
2021/07/02 03:03:30;;;;;;;;;13.50;12.00;;;;;25.63;44.62;101576.25;5059085;28;45366;-70
2021/07/02 03:05:55;;;;;;;;;11.00;11.00;;;;;25.77;44.88;101593.25;5059665;28;45410;-70
2021/07/02 03:08:21;;;;;;;;;12.25;12.25;;;;;25.66;44.85;101578.53;5058319;28;47735;-70
2021/07/02 03:10:46;;;;;;;;;10.75;9.25;;;;;25.41;44.90;101538.91;5063225;28;45201;-70
2021/07/02 03:13:12;;;;;;;;;10.50;10.00;;;;;25.76;44.74;101594.28;5079050;28;45219;-70
2021/07/02 03:15:37;;;;;;;;;13.50;13.50;;;;;25.76;45.07;101590.78;5078365;28;45533;-70
2021/07/02 03:18:03;;;;;;;;;9.25;9.25;;;;;25.58;44.50;101570.66;5074891;28;47358;-70
2021/07/02 03:20:28;;;;;;;;;9.50;9.50;;;;;25.48;44.52;101550.44;5058368;28;45889;-70
2021/07/02 03:22:54;;;;;;;;;14.00;14.00;;;;;25.37;44.40;101533.09;5058613;28;45401;-70
2021/07/02 03:25:20;;;;;;;;;11.25;11.25;;;;;25.60;44.83;101573.97;5059837;28;45257;-70
2021/07/02 03:27:45;;;;;;;;;10.00;10.00;;;;;25.67;45.05;101579.34;5060046;28;46051;-70
2021/07/02 03:30:12;;;;;;;;;10.75;10.75;;;;;25.73;44.60;101587.47;5074990;27;45285;-70
2021/07/02 03:32:38;;;;;;;;;13.00;13.00;;;;;25.72;44.41;101587.63;5060420;28;45385;-70
2021/07/02 03:35:05;;;;;;;;;12.00;10.75;;;;;25.50;44.92;101551.09;5060108;28;45435;-70
2021/07/02 03:37:31;;;;;;;;;12.50;12.50;;;;;25.73;44.79;101587.47;5061685;28;46336;-70
2021/07/02 03:39:57;;;;;;;;;13.50;12.25;;;;;25.61;44.84;101567.59;5059570;28;45285;-70
2021/07/02 03:42:22;;;;;;;;;12.25;11.25;;;;;25.63;44.68;101574.41;5059932;28;45272;-70
2021/07/02 03:44:48;;;;;;;;;11.25;11.25;;;;;25.67;44.81;101580.19;5059413;28;45228;-71
2021/07/02 03:47:13;;;;;;;;;12.00;12.00;;;;;25.59;44.91;101567.81;5059596;28;45457;-70
2021/07/02 03:49:39;;;;;;;;;14.50;14.50;;;;;25.32;44.72;101532.03;5059704;28;45426;-70
2021/07/02 03:52:05;;;;;;;;;14.50;14.50;;;;;25.63;44.82;101576.25;5058461;28;45751;-70
2021/07/02 03:54:30;;;;;;;;;12.25;11.50;;;;;25.31;44.67;101527.72;5057781;28;46028;-71
2021/07/02 03:57:11;;;;;;;;;11.00;11.00;;;;;25.51;44.64;101562.56;5059452;28;47010;-70
2021/07/02 03:59:38;;;;;;;;;12.00;10.75;;;;;25.71;44.95;101602.78;5061465;27;45419;-70
2021/07/02 04:02:04;;;;;;;;;12.25;11.00;;;;;25.42;44.62;101564.53;5059230;28;45325;-70
2021/07/02 04:04:32;;;;;;;;;12.50;12.50;;;;;25.66;44.77;101607.03;5074754;28;45532;-70
2021/07/02 04:06:58;;;;;;;;;12.75;11.00;;;;;25.45;44.68;101574.00;5057835;28;47713;-71
2021/07/02 04:09:23;;;;;;;;;14.00;14.00;;;;;25.63;44.63;101605.56;5057915;28;45243;-70
2021/07/02 04:11:49;;;;;;;;;11.00;11.00;;;;;25.58;44.80;101597.31;5071105;28;45343;-71
2021/07/02 04:14:14;;;;;;;;;10.50;10.00;;;;;25.55;44.53;101603.84;5081647;28;45255;-70
2021/07/02 04:16:39;;;;;;;;;11.75;11.75;;;;;25.39;44.77;101572.88;5082929;28;46319;-70
2021/07/02 04:19:05;;;;;;;;;12.25;12.25;;;;;25.43;44.45;101584.81;5083032;28;45378;-70
2021/07/02 04:21:30;;;;;;;;;11.50;10.25;;;;;25.63;44.92;101610.91;5082972;28;45582;-70
2021/07/02 04:23:55;;;;;;;;;15.25;13.75;;;;;25.69;44.41;101617.31;5081210;28;45627;-70
2021/07/02 04:26:21;;;;;;;;;11.00;11.00;;;;;25.64;44.51;101607.22;5081435;28;48116;-70
2021/07/02 04:28:46;;;;;;;;;11.25;9.75;;;;;25.58;44.44;101591.97;5098169;27;45516;-70
2021/07/02 04:31:12;;;;;;;;;14.50;14.25;;;;;25.73;44.49;101623.94;5082946;28;45205;-70
2021/07/02 04:33:37;;;;;;;;;11.00;9.75;;;;;25.61;44.77;101600.41;5081347;28;45484;-70
2021/07/02 04:36:03;;;;;;;;;11.00;9.75;;;;;25.68;45.00;101616.50;5082714;28;46285;-71
2021/07/02 04:38:28;;;;;;;;;10.00;9.50;;;;;25.68;44.51;101613.84;5078970;27;45927;-70
2021/07/02 04:40:54;;;;;;;;;11.00;10.00;;;;;25.71;44.81;101626.75;5062237;28;45542;-70
2021/07/02 04:43:19;;;;;;;;;13.00;10.50;;;;;25.61;44.67;101613.72;5060960;28;45510;-70
2021/07/02 04:45:44;;;;;;;;;11.50;11.00;;;;;25.69;44.43;101611.97;5062026;28;45428;-70
2021/07/02 04:48:10;;;;;;;;;11.00;11.00;;;;;25.67;44.58;101614.84;5060962;28;45256;-71
2021/07/02 04:50:35;;;;;;;;;13.50;13.25;;;;;25.48;45.09;101593.06;5062102;28;45240;-70
2021/07/02 04:53:01;;;;;;;;;12.25;11.50;;;;;25.67;44.35;101620.16;5060485;28;45445;-70
2021/07/02 04:55:27;;;;;;;;;12.00;10.00;;;;;25.62;44.61;101602.06;5062266;28;46539;-70
2021/07/02 04:57:52;;;;;;;;;14.50;13.75;;;;;25.31;44.56;101557.84;5067807;28;45329;-70
2021/07/02 05:00:18;;;;;;;;;12.25;11.75;;;;;25.51;44.50;101592.72;5061751;28;45508;-70
2021/07/02 05:02:43;;;;;;;;;13.75;13.75;;;;;25.69;44.51;101609.31;5061872;28;45454;-71
2021/07/02 05:05:09;;;;;;;;;13.75;11.50;;;;;25.61;44.44;101602.25;5077551;28;47010;-70
2021/07/02 05:07:35;;;;;;;;;12.25;11.50;;;;;25.71;44.81;101616.09;5061952;28;45288;-71
2021/07/02 05:10:01;;;;;;;;;11.00;11.00;;;;;25.60;44.68;101598.78;5061932;28;45450;-71
2021/07/02 05:12:30;;;;;;;;;9.00;9.00;;;;;25.57;44.53;101593.81;5078980;28;45234;-71
2021/07/02 05:14:55;;;;;;;;;13.50;13.50;;;;;25.52;44.42;101580.22;5081647;28;46428;-71
2021/07/02 05:17:20;;;;;;;;;11.00;11.00;;;;;25.72;44.77;101616.94;5081901;28;45428;-71
2021/07/02 05:19:46;;;;;;;;;11.75;11.75;;;;;25.65;44.15;101602.72;5080873;28;45316;-71
2021/07/02 05:22:20;;;;;;;;;10.75;10.75;;;;;25.70;44.34;101609.13;5081963;28;45302;-72
2021/07/02 05:24:47;;;;;;;;;15.00;13.50;;;;;25.71;44.56;101612.63;5079530;28;47081;-70
2021/07/02 05:27:13;;;;;;;;;11.25;10.00;;;;;25.70;44.63;101613.63;5097499;27;45449;-70
2021/07/02 05:29:39;;;;;;;;;10.75;10.75;;;;;25.67;44.45;101608.66;5080552;28;45276;-70
2021/07/02 05:32:05;;;;;;;;;12.75;11.00;;;;;25.68;44.56;101607.66;5079516;28;45559;-70
2021/07/02 05:34:31;;;;;;;;;14.00;13.50;;;;;25.70;44.73;101605.63;5081833;28;46597;-72
2021/07/02 05:36:57;;;;;;;;;10.50;10.50;;;;;25.74;44.50;101615.75;5090963;27;45467;-72
2021/07/02 05:39:22;;;;;;;;;11.50;11.00;;;;;25.71;44.52;101609.97;5061668;28;45232;-71
2021/07/02 05:41:48;;;;;;;;;14.00;11.75;;;;;25.62;44.89;101594.09;5062081;27;45594;-73
2021/07/02 05:44:13;;;;;;;;;13.00;12.00;;;;;25.62;44.76;101601.25;5070030;28;45504;-72
2021/07/02 05:46:38;;;;;;;;;11.00;11.00;;;;;25.68;44.67;101603.19;5060947;28;45328;-72
2021/07/02 05:49:05;;;;;;;;;10.00;10.00;;;;;25.35;45.18;101556.44;5061393;28;45312;-72
2021/07/02 05:51:30;;;;;;;;;13.75;12.75;;;;;25.72;45.06;101615.09;5061781;28;45513;-71
2021/07/02 05:53:56;;;;;;;;;9.50;9.50;;;;;25.80;45.03;101632.03;5070662;27;45408;-72
2021/07/02 05:56:27;;;;;;;;;14.50;13.50;;;;;25.73;45.24;101610.59;5065282;28;45291;-69
2021/07/02 05:58:54;;;;;;;;;11.00;10.50;;;;;25.76;45.18;101615.59;5071732;28;45208;-70
2021/07/02 06:01:19;;;;;;;;;12.25;12.25;;;;;25.74;44.90;101597.09;5067134;28;45365;-70
2021/07/02 06:03:44;;;;;;;;;11.75;11.75;;;;;25.86;45.30;101609.97;5069496;28;45253;-70
2021/07/02 06:06:10;;;;;;;;;11.75;11.50;;;;;25.90;44.68;101613.88;5069338;27;45256;-70
2021/07/02 06:08:35;;;;;;;;;14.00;12.25;;;;;25.91;45.03;101598.72;5067420;28;45869;-70
2021/07/02 06:11:01;;;;;;;;;11.00;10.50;;;;;25.97;44.92;101595.28;5068563;28;45692;-70
2021/07/02 06:13:27;;;;;;;;;9.50;9.50;;;;;26.17;45.01;101610.69;5062782;28;45408;-73
2021/07/02 06:15:52;;;;;;;;;12.75;11.00;;;;;26.36;44.54;101601.19;5059940;28;45399;-75
2021/07/02 06:18:17;;;;;;;;;12.00;10.25;;;;;26.60;44.09;101625.03;5058608;28;45663;-71
2021/07/02 06:20:43;;;;;;;;;13.50;12.50;;;;;26.60;44.16;101619.69;5060549;28;45363;-74
2021/07/02 06:23:08;;;;;;;;;15.00;13.25;;;;;26.53;44.04;101598.31;5059498;28;45438;-72
2021/07/02 06:25:33;;;;;;;;;13.25;11.75;;;;;26.63;44.08;101612.16;5060398;28;45522;-74
2021/07/02 06:27:59;;;;;;;;;9.25;8.75;;;;;26.70;43.71;101614.84;5073908;27;45347;-73
2021/07/02 06:30:24;;;;;;;;;10.00;10.00;;;;;26.61;43.88;101597.34;5080769;28;45730;-72
2021/07/02 06:32:50;;;;;;;;;12.75;12.75;;;;;26.65;44.06;101593.25;5080881;28;45178;-72
2021/07/02 06:35:16;;;;;;;;;16.00;13.50;;;;;26.68;44.03;101597.38;5079424;28;45359;-72
2021/07/02 06:37:48;;;;;;;;;16.00;13.25;;;;;26.74;43.35;101597.44;5069539;28;45284;-72
2021/07/02 06:40:13;;;;;;;;;12.00;12.00;;;;;26.87;43.63;101614.56;5060490;28;45306;-72
2021/07/02 06:42:39;;;;;;;;;13.00;12.25;;;;;26.87;43.42;101608.41;5058758;28;48129;-72
2021/07/02 06:45:05;;;;;;;;;12.25;11.00;;;;;26.87;43.49;101609.22;5075447;28;45341;-71
2021/07/02 06:47:30;;;;;;;;;13.25;12.75;;;;;26.79;43.49;101590.69;5059374;28;45314;-73
2021/07/02 06:49:56;;;;;;;;;11.75;11.00;;;;;26.87;43.07;101606.56;5060287;28;45267;-72
2021/07/02 06:52:21;;;;;;;;;12.25;11.25;;;;;26.96;43.73;101621.41;5060661;28;45705;-72
2021/07/02 06:54:47;;;;;;;;;11.75;11.75;;;;;26.80;43.18;101589.69;5060082;28;45425;-72
2021/07/02 06:57:15;;;;;;;;;13.50;13.00;;;;;26.90;43.70;101597.34;5064101;28;45239;-72
2021/07/02 06:59:40;;;;;;;;;9.25;9.25;;;;;27.00;43.50;101605.00;5060232;28;45383;-72
2021/07/02 07:02:10;;;;;;;;;14.75;11.75;;;;;27.00;43.11;101605.81;5059815;28;46012;-72
2021/07/02 07:04:36;;;;;;;;;10.50;10.00;;;;;26.96;43.47;101591.19;5060095;28;45231;-72
2021/07/02 07:07:05;;;;;;;;;10.00;8.75;;;;;27.07;43.20;101609.34;5059966;28;45262;-71
2021/07/02 07:09:31;;;;;;;;;12.25;11.00;;;;;27.08;42.99;101604.84;5060001;28;45429;-72
2021/07/02 07:11:58;;;;;;;;;13.00;13.00;;;;;27.02;43.33;101589.59;5072639;27;45477;-72
2021/07/02 07:14:23;;;;;;;;;10.75;10.75;;;;;27.00;42.97;101584.47;5078813;28;45409;-72
2021/07/02 07:16:48;;;;;;;;;11.50;10.50;;;;;27.16;43.68;101601.22;5080330;28;45398;-73
2021/07/02 07:19:15;;;;;;;;;12.75;11.50;;;;;27.18;43.04;101607.19;5079188;28;45528;-70
2021/07/02 07:21:40;;;;;;;;;11.00;11.00;;;;;27.06;43.30;101586.34;5078968;28;47252;-71
2021/07/02 07:24:05;;;;;;;;;13.50;12.50;;;;;27.18;43.00;101604.53;5079863;28;45227;-71
2021/07/02 07:26:31;;;;;;;;;11.50;10.00;;;;;27.20;43.07;101605.13;5079049;28;45271;-72
2021/07/02 07:28:56;;;;;;;;;14.75;11.75;;;;;27.28;43.08;101620.19;5078605;28;45868;-73
2021/07/02 07:31:22;;;;;;;;;15.25;13.50;;;;;27.26;43.31;101616.88;5078966;28;46096;-72
2021/07/02 07:33:49;;;;;;;;;12.00;11.00;;;;;27.32;43.64;101618.78;5077451;28;45937;-72
2021/07/02 07:36:16;;;;;;;;;15.75;14.00;;;;;27.28;43.42;101618.34;5080571;28;45452;-72
2021/07/02 07:38:43;;;;;;;;;12.00;10.75;;;;;27.34;43.05;101627.41;5062216;27;45484;-72
2021/07/02 07:41:11;;;;;;;;;11.25;10.50;;;;;27.37;42.81;101631.53;5059597;28;45409;-72
2021/07/02 07:43:37;;;;;;;;;13.50;12.00;;;;;27.28;42.91;101613.00;5057849;28;45497;-72
2021/07/02 07:46:06;;;;;;;;;15.50;12.75;;;;;27.28;43.10;101607.66;5058106;28;45311;-71
2021/07/02 07:48:32;;;;;;;;;12.50;12.00;;;;;27.42;43.04;101625.59;5081685;28;45331;-73
2021/07/02 07:53:58;;;;;;;;;14.50;12.00;;;;;27.41;43.45;101635.47;5060387;28;45342;-72
2021/07/02 07:56:26;;;;;;;;;11.00;11.00;;;;;27.42;43.31;101631.78;5063483;28;45495;-72
2021/07/02 07:58:53;;;;;;;;;10.50;10.50;;;;;27.46;43.32;101640.19;5067850;27;45269;-72
2021/07/02 08:01:19;;;;;;;;;13.50;12.00;;;;;27.48;43.34;101644.31;5061462;28;47106;-72
2021/07/02 08:03:45;;;;;;;;;10.50;10.50;;;;;27.36;43.04;101628.03;5063259;28;45217;-72
2021/07/02 08:06:11;;;;;;;;;10.25;10.25;;;;;27.47;43.20;101648.03;5061344;28;45516;-72
2021/07/02 08:08:36;;;;;;;;;11.25;11.25;;;;;27.46;42.65;101643.72;5063230;28;45257;-72
2021/07/02 08:11:02;;;;;;;;;13.00;11.50;;;;;27.43;42.95;101644.09;5068140;28;46201;-73
2021/07/02 08:13:29;;;;;;;;;13.00;13.00;;;;;27.54;42.86;101649.91;5072889;28;45299;-72
2021/07/02 08:15:55;;;;;;;;;10.75;10.75;;;;;27.54;42.54;101650.72;5081885;28;45551;-73
2021/07/02 08:18:21;;;;;;;;;15.00;13.00;;;;;27.55;43.17;101649.72;5083130;28;45346;-72
2021/07/02 08:20:46;;;;;;;;;11.75;10.25;;;;;27.37;43.05;101613.66;5082740;27;46329;-72
2021/07/02 08:23:13;;;;;;;;;11.25;10.25;;;;;27.53;42.91;101635.72;5082698;28;45298;-72
2021/07/02 08:25:38;;;;;;;;;13.00;13.00;;;;;27.45;42.79;101626.03;5083371;28;45330;-72
2021/07/02 08:30:50;;;;;;;;;15.00;12.25;;;;;27.47;42.52;101615.13;5082530;28;45409;-71
2021/07/02 08:33:18;;;;;;;;;11.75;11.75;;;;;27.46;42.83;101611.63;5082251;28;45336;-72
2021/07/02 08:35:45;;;;;;;;;15.50;13.00;;;;;27.56;42.60;101618.47;5081694;28;45327;-71
2021/07/02 08:38:11;;;;;;;;;11.25;11.00;;;;;27.51;42.80;101611.88;5066950;28;45318;-71
2021/07/02 08:40:36;;;;;;;;;11.75;11.75;;;;;27.58;42.85;101619.94;5061123;28;47631;-71
2021/07/02 08:43:02;;;;;;;;;14.00;12.75;;;;;27.60;42.66;101619.72;5062579;28;45407;-72
2021/07/02 08:45:27;;;;;;;;;11.75;10.75;;;;;27.50;42.78;101606.72;5077992;28;45326;-72
2021/07/02 08:47:54;;;;;;;;;13.75;13.75;;;;;27.67;42.94;101623.22;5061015;28;45963;-72
2021/07/02 08:50:22;;;;;;;;;15.50;12.25;;;;;27.54;42.54;101594.59;5062362;28;45379;-71
2021/07/02 08:52:48;;;;;;;;;10.50;10.50;;;;;27.55;42.30;101592.75;5077859;28;46489;-72
2021/07/02 08:55:13;;;;;;;;;10.50;10.50;;;;;27.68;42.56;101608.84;5062365;28;45336;-72
2021/07/02 08:57:40;;;;;;;;;12.25;11.50;;;;;27.71;42.85;101611.09;5067573;28;45348;-72
2021/07/02 09:00:06;;;;;;;;;10.50;10.25;;;;;27.71;42.40;101615.66;5061748;28;46465;-72
2021/07/02 09:02:33;;;;;;;;;15.75;12.75;;;;;27.55;42.79;101587.41;5060769;28;45317;-72
2021/07/02 09:05:33;;;;;;;;;11.50;11.25;;;;;27.68;42.50;101600.00;5081271;27;45354;-72
2021/07/02 09:08:00;;;;;;;;;6.25;6.00;;;;;27.55;42.92;101574.06;5082464;28;45188;-71
2021/07/02 09:10:35;;;;;;;;;11.50;11.50;;;;;27.70;42.23;101592.59;5097837;27;46543;-73
2021/07/02 09:13:02;;;;;;;;;15.00;14.25;;;;;27.68;42.59;101595.50;5082512;28;45330;-72
2021/07/02 09:15:28;;;;;;;;;12.75;12.25;;;;;27.65;42.52;101590.53;5082114;28;45330;-72
2021/07/02 09:17:59;;;;;;;;;13.00;13.00;;;;;27.59;42.36;101589.47;5098087;27;45575;-72
2021/07/02 09:20:26;;;;;;;;;11.75;11.75;;;;;27.67;42.37;101601.84;5082564;28;46086;-72
2021/07/02 09:22:53;;;;;;;;;11.50;11.50;;;;;27.67;42.34;101595.66;5082397;28;45334;-72
2021/07/02 09:25:20;;;;;;;;;12.50;10.50;;;;;27.69;42.72;101597.13;5082315;28;45234;-72
2021/07/02 09:27:46;;;;;;;;;11.25;10.75;;;;;27.65;42.37;101585.19;5082154;28;45313;-72
2021/07/02 09:30:18;;;;;;;;;10.25;10.25;;;;;27.68;42.10;101592.81;5080450;28;45343;-72
2021/07/02 09:32:50;;;;;;;;;14.00;12.00;;;;;27.63;42.25;101585.41;5081958;28;45280;-72
2021/07/02 09:35:17;;;;;;;;;12.00;11.50;;;;;27.63;42.54;101581.91;5082003;28;45405;-72
2021/07/02 09:37:52;;;;;;;;;14.25;12.25;;;;;27.59;42.76;101576.13;5069821;27;45509;-72
2021/07/02 09:40:23;;;;;;;;;13.00;12.75;;;;;27.58;42.55;101574.50;5059923;28;47870;-72
2021/07/02 09:43:08;;;;;;;;;11.25;11.25;;;;;27.63;42.78;101580.06;5060487;28;45438;-72
2021/07/02 09:45:42;;;;;;;;;12.75;12.25;;;;;27.63;42.71;101581.91;5060340;28;45352;-72
2021/07/02 09:48:09;;;;;;;;;15.50;14.75;;;;;27.53;42.24;101563.56;5076791;28;45285;-72
2021/07/02 09:50:42;;;;;;;;;13.00;12.50;;;;;27.57;42.63;101575.50;5061614;28;46205;-72
2021/07/02 09:53:10;;;;;;;;;13.25;11.25;;;;;27.58;42.58;101573.66;5060863;28;45470;-72
2021/07/02 09:55:48;;;;;;;;;13.25;13.25;;;;;27.61;42.68;101583.97;5060821;28;45442;-72
2021/07/02 09:58:16;;;;;;;;;12.00;10.25;;;;;27.57;43.06;101572.00;5064492;28;45612;-73
2021/07/02 10:00:47;;;;;;;;;12.50;12.50;;;;;27.59;42.30;101581.47;5059600;28;47586;-72
2021/07/02 10:03:13;;;;;;;;;14.00;12.75;;;;;27.54;42.74;101583.91;5064912;27;45435;-73
2021/07/02 10:05:51;;;;;;;;;11.75;11.50;;;;;27.60;43.08;101584.97;5079768;28;45349;-72
2021/07/02 10:08:18;;;;;;;;;14.50;12.75;;;;;27.57;42.98;101590.72;5080177;28;45295;-79
2021/07/02 10:10:45;;;;;;;;;13.00;11.75;;;;;27.46;42.43;101578.75;5079597;28;46868;-70
2021/07/02 10:13:11;;;;;;;;;11.00;10.50;;;;;27.59;42.47;101608.19;5079987;28;45329;-71
2021/07/02 10:15:40;;;;;;;;;11.25;11.25;;;;;27.57;42.63;101602.22;5081819;28;45331;-73
2021/07/02 10:18:11;;;;;;;;;11.75;11.75;;;;;27.48;42.48;101590.88;5081568;28;45251;-75
2021/07/02 10:20:39;;;;;;;;;15.25;13.25;;;;;27.50;42.92;101588.84;5080632;28;46482;-72
2021/07/02 10:23:06;;;;;;;;;15.00;13.00;;;;;27.46;42.80;101578.75;5082485;28;45202;-71
2021/07/02 10:25:33;;;;;;;;;14.50;12.75;;;;;27.48;42.42;101576.72;5081083;28;45225;-73
2021/07/02 10:27:59;;;;;;;;;15.00;14.00;;;;;27.56;43.01;101589.06;5079790;28;45358;-71
2021/07/02 10:30:25;;;;;;;;;16.50;14.00;;;;;27.41;42.50;101563.31;5096276;27;48481;-71
2021/07/02 10:32:57;;;;;;;;;16.00;14.00;;;;;27.44;42.88;101583.47;5080928;28;45335;-71
2021/07/02 10:35:24;;;;;;;;;11.75;11.75;;;;;27.50;42.60;101594.19;5080843;28;45232;-73
2021/07/02 10:37:55;;;;;;;;;16.00;14.50;;;;;27.48;43.06;101585.53;5068144;28;45389;-72
2021/07/02 10:40:21;;;;;;;;;12.75;12.25;;;;;27.46;42.71;101579.56;5060429;28;46053;-71
2021/07/02 10:43:04;;;;;;;;;17.00;15.00;;;;;27.40;43.32;101565.16;5060308;28;45234;-71
2021/07/02 10:45:29;;;;;;;;;14.50;12.50;;;;;27.34;42.74;101562.47;5067736;28;45358;-71
2021/07/02 10:47:55;;;;;;;;;14.25;13.00;;;;;27.32;42.95;101560.00;5077823;28;45430;-72
2021/07/02 10:50:40;;;;;;;;;16.50;14.75;;;;;27.26;42.89;101558.94;5081024;28;46291;-72
2021/07/02 10:53:41;;;;;;;;;14.75;12.50;;;;;27.25;43.28;101561.81;5080697;28;45307;-72
2021/07/02 10:56:26;;;;;;;;;14.00;14.00;;;;;27.22;43.45;101556.88;5055476;28;45546;-71
2021/07/02 10:58:52;;;;;;;;;14.75;14.25;;;;;27.23;42.97;101558.50;5061033;28;45526;-72
2021/07/02 11:01:18;;;;;;;;;19.50;15.25;;;;;27.16;43.09;101542.47;5075376;28;46472;-73
2021/07/02 11:03:43;;;;;;;;;15.00;15.00;;;;;27.11;42.52;101545.69;5060303;28;45295;-73
2021/07/02 11:06:40;;;;;;;;;16.00;16.00;;;;;27.31;42.89;101565.53;5060417;28;45410;-73
2021/07/02 11:09:07;;;;;;;;;12.75;12.75;;;;;27.21;42.51;101552.53;5060190;28;45189;-74
2021/07/02 11:12:10;;;;;;;;;16.50;13.75;;;;;27.28;42.55;101556.91;5075629;28;48001;-74
2021/07/02 11:14:51;;;;;;;;;17.50;15.50;;;;;27.31;42.66;101552.16;5075302;28;45358;-74